Estación de Hornitos
Ultimos registro cada 15 minutos 89
| N° | Estación | Fecha / Hora | Temperatura | Humedad | Lluvia | Velocidad | Dirección | Radiación | Presion |
| 89 | Hornitos | 04-05-2026 22:00 | 10,3 | 66 | 0 | 0 | 243 | 0 | 1012,9 |
| 88 | Hornitos | 04-05-2026 21:45 | 10,4 | 65 | 0 | 0 | 243 | 0 | 1012,9 |
| 87 | Hornitos | 04-05-2026 21:30 | 10,9 | 63 | 0 | 0 | 243 | 0 | 1012,7 |
| 86 | Hornitos | 04-05-2026 21:15 | 11,3 | 62 | 0 | 0 | 243 | 0 | 1012,8 |
| 85 | Hornitos | 04-05-2026 21:00 | 11,6 | 62 | 0 | 0 | 250 | 0 | 1012,7 |
| 84 | Hornitos | 04-05-2026 20:45 | 11,8 | 58 | 0 | 0 | 250 | 0 | 1012,4 |
| 83 | Hornitos | 04-05-2026 20:30 | 12,7 | 56 | 0 | 0 | 250 | 0 | 1012,2 |
| 82 | Hornitos | 04-05-2026 20:15 | 12,7 | 55 | 0 | 0 | 228 | 0 | 1011,7 |
| 81 | Hornitos | 04-05-2026 20:00 | 13,2 | 52 | 0 | 0 | 227 | 0 | 1011,5 |
| 80 | Hornitos | 04-05-2026 19:45 | 13,7 | 50 | 0 | 0,4 | 218 | 0 | 1011,2 |
| 79 | Hornitos | 04-05-2026 19:30 | 14,2 | 47 | 0 | 0 | 264 | 0 | 1010,6 |
| 78 | Hornitos | 04-05-2026 19:15 | 15,3 | 43 | 0 | 0 | 313 | 0 | 1010,3 |
| 77 | Hornitos | 04-05-2026 19:00 | 15,2 | 39 | 0 | 0 | 306 | 0 | 1010 |
| 76 | Hornitos | 04-05-2026 18:45 | 16,1 | 37 | 0 | 0,4 | 155 | 0 | 1009,6 |
| 75 | Hornitos | 04-05-2026 18:30 | 16,6 | 34 | 0 | 0,4 | 280 | 0 | 1009,6 |
| 74 | Hornitos | 04-05-2026 18:15 | 17,8 | 31 | 0 | 0 | 244 | 0 | 1009,3 |
| 73 | Hornitos | 04-05-2026 18:00 | 18,7 | 30 | 0 | 0 | 228 | 0 | 1009,2 |
| 72 | Hornitos | 04-05-2026 17:45 | 20,4 | 26 | 0 | 0 | 198 | 9 | 1009,3 |
| 71 | Hornitos | 04-05-2026 17:30 | 23,3 | 23 | 0 | 0 | 250 | 12 | 1009,1 |
| 70 | Hornitos | 04-05-2026 17:15 | 26,8 | 15 | 0 | 0 | 295 | 18 | 1009,1 |
| 69 | Hornitos | 04-05-2026 17:00 | 27,5 | 12 | 0 | 0,4 | 5 | 151 | 1008,9 |
| 68 | Hornitos | 04-05-2026 16:45 | 27,8 | 12 | 0 | 1,3 | 32 | 209 | 1009 |
| 67 | Hornitos | 04-05-2026 16:30 | 28,2 | 12 | 0 | 0,4 | 345 | 255 | 1009 |
| 66 | Hornitos | 04-05-2026 16:15 | 28,4 | 14 | 0 | 0,4 | 54 | 292 | 1008,9 |
| 65 | Hornitos | 04-05-2026 16:00 | 28,9 | 13 | 0 | 1,3 | 31 | 334 | 1008,6 |
| 64 | Hornitos | 04-05-2026 15:45 | 28,8 | 13 | 0 | 0,9 | 349 | 373 | 1008,9 |
| 63 | Hornitos | 04-05-2026 15:30 | 28,7 | 16 | 0 | 0,4 | 297 | 411 | 1009 |
| 62 | Hornitos | 04-05-2026 15:15 | 28,7 | 15 | 0 | 1,8 | 313 | 450 | 1009 |
| 61 | Hornitos | 04-05-2026 15:00 | 28,8 | 16 | 0 | 2,2 | 327 | 485 | 1009,2 |
| 60 | Hornitos | 04-05-2026 14:45 | 29,2 | 14 | 0 | 3,1 | 308 | 519 | 1009,4 |
| 59 | Hornitos | 04-05-2026 14:30 | 29,3 | 15 | 0 | 0,9 | 10 | 547 | 1009,4 |
| 58 | Hornitos | 04-05-2026 14:15 | 29,1 | 14 | 0 | 0,9 | 13 | 573 | 1009,4 |
| 57 | Hornitos | 04-05-2026 14:00 | 28,6 | 15 | 0 | 1,8 | 339 | 601 | 1009,7 |
| 56 | Hornitos | 04-05-2026 13:45 | 28,6 | 13 | 0 | 2,2 | 297 | 308 | 1009,9 |
| 55 | Hornitos | 04-05-2026 13:30 | 28,4 | 12 | 0 | 1,8 | 339 | 88 | 1010 |
| 54 | Hornitos | 04-05-2026 13:15 | 28,3 | 9 | 0 | 0,4 | 359 | 60 | 1010,2 |
| 53 | Hornitos | 04-05-2026 13:00 | 27,8 | 12 | 0 | 1,8 | 314 | 98 | 1010,4 |
| 52 | Hornitos | 04-05-2026 12:45 | 27,6 | 11 | 0 | 2,2 | 33 | 243 | 1010,6 |
| 51 | Hornitos | 04-05-2026 12:30 | 26,8 | 13 | 0 | 0,9 | 37 | 121 | 1010,8 |
| 50 | Hornitos | 04-05-2026 12:15 | 26,1 | 15 | 0 | 0,9 | 58 | 218 | 1010,9 |
| 49 | Hornitos | 04-05-2026 12:00 | 25,1 | 15 | 0 | 2,2 | 66 | 44 | 1011 |
| 48 | Hornitos | 04-05-2026 11:45 | 24,6 | 14 | 0 | 0,9 | 23 | 188 | 1011,4 |
| 47 | Hornitos | 04-05-2026 11:30 | 23,8 | 20 | 0 | 0,9 | 334 | 214 | 1011,6 |
| 46 | Hornitos | 04-05-2026 11:15 | 22,5 | 23 | 0 | 0,9 | 314 | 603 | 1011,9 |
| 45 | Hornitos | 04-05-2026 11:00 | 22,1 | 24 | 0 | 1,3 | 60 | 577 | 1012,2 |
| 44 | Hornitos | 04-05-2026 10:45 | 21,1 | 29 | 0 | 0,9 | 14 | 550 | 1012,2 |
| 43 | Hornitos | 04-05-2026 10:30 | 20,4 | 31 | 0 | 0,4 | 1 | 522 | 1012,4 |
| 42 | Hornitos | 04-05-2026 10:15 | 19,5 | 33 | 0 | 0,4 | 53 | 492 | 1012,6 |
| 41 | Hornitos | 04-05-2026 10:00 | 18,3 | 35 | 0 | 0,9 | 301 | 459 | 1012,9 |
| 40 | Hornitos | 04-05-2026 09:45 | 17,6 | 40 | 0 | 0,4 | 39 | 420 | 1013 |
| 39 | Hornitos | 04-05-2026 09:30 | 16,4 | 41 | 0 | 0 | 68 | 381 | 1013 |
| 38 | Hornitos | 04-05-2026 09:15 | 15,2 | 54 | 0 | 0,4 | 46 | 341 | 1013 |
| 37 | Hornitos | 04-05-2026 09:00 | 13,6 | 60 | 0 | 0,9 | 60 | 297 | 1012,9 |
| 36 | Hornitos | 04-05-2026 08:45 | 10,9 | 72 | 0 | 0 | 213 | 257 | 1013,1 |
| 35 | Hornitos | 04-05-2026 08:30 | 8,3 | 85 | 0 | 0 | 232 | 213 | 1013,1 |
| 34 | Hornitos | 04-05-2026 08:15 | 5,7 | 76 | 0 | 0 | 233 | 167 | 1013,1 |
| 33 | Hornitos | 04-05-2026 08:00 | 4,8 | 75 | 0 | 0 | 233 | 14 | 1013,3 |
| 32 | Hornitos | 04-05-2026 07:45 | 4,7 | 75 | 0 | 0 | 235 | 12 | 1013,2 |
| 31 | Hornitos | 04-05-2026 07:30 | 4,9 | 75 | 0 | 0 | 235 | 9 | 1013,1 |
| 30 | Hornitos | 04-05-2026 07:15 | 4,9 | 76 | 0 | 0 | 235 | 5 | 1013,1 |
| 29 | Hornitos | 04-05-2026 07:00 | 4,8 | 76 | 0 | 0,4 | 169 | 0 | 1013,1 |
| 28 | Hornitos | 04-05-2026 06:45 | 4,5 | 75 | 0 | 0 | 179 | 0 | 1013,2 |
| 27 | Hornitos | 04-05-2026 06:30 | 4,6 | 75 | 0 | 0 | 179 | 0 | 1013,2 |
| 26 | Hornitos | 04-05-2026 06:15 | 4,8 | 75 | 0 | 0 | 179 | 0 | 1012,9 |
| 25 | Hornitos | 04-05-2026 06:00 | 5 | 75 | 0 | 0 | 179 | 0 | 1012,8 |
| 24 | Hornitos | 04-05-2026 05:45 | 5,2 | 75 | 0 | 0 | 179 | 0 | 1012,5 |
| 23 | Hornitos | 04-05-2026 05:30 | 5,4 | 75 | 0 | 0 | 179 | 0 | 1012,4 |
| 22 | Hornitos | 04-05-2026 05:15 | 5,7 | 76 | 0 | 0 | 179 | 0 | 1012,3 |
| 21 | Hornitos | 04-05-2026 05:00 | 5,7 | 75 | 0 | 0 | 174 | 0 | 1012,2 |
| 20 | Hornitos | 04-05-2026 04:45 | 6,1 | 75 | 0 | 0,4 | 174 | 0 | 1012,1 |
| 19 | Hornitos | 04-05-2026 04:30 | 6,4 | 76 | 0 | 0 | 133 | 0 | 1012,2 |
| 18 | Hornitos | 04-05-2026 04:15 | 6,1 | 74 | 0 | 0 | 216 | 0 | 1012,2 |
| 17 | Hornitos | 04-05-2026 04:00 | 6,1 | 74 | 0 | 0 | 216 | 0 | 1012,3 |
| 16 | Hornitos | 04-05-2026 03:45 | 6,1 | 74 | 0 | 0 | 216 | 0 | 1012,5 |
| 15 | Hornitos | 04-05-2026 03:30 | 6,1 | 74 | 0 | 0 | 216 | 0 | 1012,5 |
| 14 | Hornitos | 04-05-2026 03:15 | 6 | 73 | 0 | 0 | 216 | 0 | 1012,5 |
| 13 | Hornitos | 04-05-2026 03:00 | 6,2 | 73 | 0 | 0 | 216 | 0 | 1012,6 |
| 12 | Hornitos | 04-05-2026 02:45 | 6,1 | 72 | 0 | 0 | 216 | 0 | 1012,7 |
| 11 | Hornitos | 04-05-2026 02:30 | 6,2 | 72 | 0 | 0 | 216 | 0 | 1012,8 |
| 10 | Hornitos | 04-05-2026 02:15 | 6,6 | 72 | 0 | 0 | 216 | 0 | 1012,8 |
| 9 | Hornitos | 04-05-2026 02:00 | 6,8 | 72 | 0 | 0 | 216 | 0 | 1013 |
| 8 | Hornitos | 04-05-2026 01:45 | 6,8 | 72 | 0 | 0 | 216 | 0 | 1013,1 |
| 7 | Hornitos | 04-05-2026 01:30 | 6,9 | 71 | 0 | 0 | 216 | 0 | 1013 |
| 6 | Hornitos | 04-05-2026 01:15 | 7 | 71 | 0 | 0 | 216 | 0 | 1012,7 |
| 5 | Hornitos | 04-05-2026 01:00 | 7,2 | 70 | 0 | 0 | 216 | 0 | 1012,7 |
| 4 | Hornitos | 04-05-2026 00:45 | 7,2 | 70 | 0 | 0 | 216 | 0 | 1012,6 |
| 3 | Hornitos | 04-05-2026 00:30 | 7,4 | 69 | 0 | 0 | 216 | 0 | 1012,7 |
| 2 | Hornitos | 04-05-2026 00:15 | 7,6 | 70 | 0 | 0 | 216 | 0 | 1012,8 |
| 1 | Hornitos | 04-05-2026 00:00 | 7,6 | 68 | 0 | 0 | 216 | 0 | 1012,7 |